Terminal Aerodrome Forecast
Issued by NWS Cleveland, OH

Home | Current Version | Previous Version | Graphics & Text | Print | Product List | Glossary On
Versions: 1 2 3 4 5 6 7 8 9 10 11 12 13 14 15 16 17
369
FTUS41 KCLE 041121
TAFTOL
TAF
KTOL 041121Z 0412/0512 VRB03KT P6SM SCT040 OVC150
     FM042300 12004KT 6SM -RASN BR SCT025 OVC040
     FM050000 13005KT 3SM -SN BR OVC020
     FM050300 22008KT 6SM -SN BR OVC025
     FM050600 25009KT P6SM OVC025=

USA.gov is the U.S. government's official web portal to all federal, state and local government web resources and services.